sensor_id;sensor_type;location;lat;lon;timestamp;pressure;altitude;pressure_sealevel;temperature;humidity
10476;BME280;26166;48.264;11.436;2023-02-11T00:01:41;98085.22;;;7.74;40.65
10476;BME280;26166;48.264;11.436;2023-02-11T00:04:41;98081.16;;;7.83;40.53
10476;BME280;26166;48.264;11.436;2023-02-11T00:07:41;98082.09;;;7.82;40.39
10476;BME280;26166;48.264;11.436;2023-02-11T00:10:42;98085.47;;;7.84;40.40
10476;BME280;26166;48.264;11.436;2023-02-11T00:13:45;98084.19;;;7.77;40.46
10476;BME280;26166;48.264;11.436;2023-02-11T00:16:45;98078.75;;;7.80;40.32
10476;BME280;26166;48.264;11.436;2023-02-11T00:19:48;98082.41;;;7.77;40.26
10476;BME280;26166;48.264;11.436;2023-02-11T00:22:49;98071.31;;;7.74;40.30
10476;BME280;26166;48.264;11.436;2023-02-11T00:25:49;98077.38;;;7.74;40.30
10476;BME280;26166;48.264;11.436;2023-02-11T00:28:49;98063.38;;;7.75;40.06
10476;BME280;26166;48.264;11.436;2023-02-11T00:31:50;98063.47;;;7.74;40.27
10476;BME280;26166;48.264;11.436;2023-02-11T00:34:53;98062.44;;;7.76;40.63
10476;BME280;26166;48.264;11.436;2023-02-11T00:37:54;98059.94;;;7.75;40.49
10476;BME280;26166;48.264;11.436;2023-02-11T00:40:54;98053.84;;;7.74;40.66
10476;BME280;26166;48.264;11.436;2023-02-11T00:43:55;98058.34;;;7.72;40.44
10476;BME280;26166;48.264;11.436;2023-02-11T00:46:55;98052.16;;;7.73;40.22
10476;BME280;26166;48.264;11.436;2023-02-11T00:49:55;98053.13;;;7.72;40.42
10476;BME280;26166;48.264;11.436;2023-02-11T00:52:55;98050.69;;;7.69;40.44
10476;BME280;26166;48.264;11.436;2023-02-11T00:55:56;98053.44;;;7.68;40.28
10476;BME280;26166;48.264;11.436;2023-02-11T00:58:56;98057.81;;;7.67;40.55
10476;BME280;26166;48.264;11.436;2023-02-11T01:01:57;98056.16;;;7.66;40.25
10476;BME280;26166;48.264;11.436;2023-02-11T01:04:57;98061.38;;;7.66;40.09
10476;BME280;26166;48.264;11.436;2023-02-11T01:07:58;98054.56;;;7.64;40.49
10476;BME280;26166;48.264;11.436;2023-02-11T01:11:06;98054.16;;;7.70;40.40
10476;BME280;26166;48.264;11.436;2023-02-11T01:14:06;98056.56;;;7.73;40.74
10476;BME280;26166;48.264;11.436;2023-02-11T01:17:06;98042.13;;;7.67;40.30
10476;BME280;26166;48.264;11.436;2023-02-11T01:20:07;98048.31;;;7.66;40.60
10476;BME280;26166;48.264;11.436;2023-02-11T01:23:11;98048.84;;;7.71;40.58
10476;BME280;26166;48.264;11.436;2023-02-11T01:26:11;98047.38;;;7.67;40.02
10476;BME280;26166;48.264;11.436;2023-02-11T01:29:11;98058.78;;;7.66;39.84
10476;BME280;26166;48.264;11.436;2023-02-11T01:32:12;98055.28;;;7.66;40.34
10476;BME280;26166;48.264;11.436;2023-02-11T01:35:12;98060.75;;;7.63;40.16
10476;BME280;26166;48.264;11.436;2023-02-11T01:38:17;98054.47;;;7.65;39.84
10476;BME280;26166;48.264;11.436;2023-02-11T01:41:18;98051.00;;;7.65;40.29
10476;BME280;26166;48.264;11.436;2023-02-11T01:44:26;98050.28;;;7.63;40.26
10476;BME280;26166;48.264;11.436;2023-02-11T01:47:26;98040.88;;;7.60;40.30
10476;BME280;26166;48.264;11.436;2023-02-11T01:50:26;98050.63;;;7.58;40.35
10476;BME280;26166;48.264;11.436;2023-02-11T01:53:27;98044.22;;;7.62;39.93
10476;BME280;26166;48.264;11.436;2023-02-11T01:56:47;98041.09;;;7.57;40.38
10476;BME280;26166;48.264;11.436;2023-02-11T02:00:26;98046.31;;;7.57;40.30
10476;BME280;26166;48.264;11.436;2023-02-11T02:03:28;98038.38;;;7.58;40.26
10476;BME280;26166;48.264;11.436;2023-02-11T02:06:49;98033.97;;;7.59;40.64
10476;BME280;26166;48.264;11.436;2023-02-11T02:09:51;98045.06;;;7.63;39.77
10476;BME280;26166;48.264;11.436;2023-02-11T02:12:56;98031.25;;;7.61;39.88
10476;BME280;26166;48.264;11.436;2023-02-11T02:16:00;98024.97;;;7.63;39.70
10476;BME280;26166;48.264;11.436;2023-02-11T02:25:41;98005.63;;;7.53;40.10
10476;BME280;26166;48.264;11.436;2023-02-11T02:38:06;97994.94;;;7.56;40.55
10476;BME280;26166;48.264;11.436;2023-02-11T02:41:08;97989.09;;;7.52;40.37
10476;BME280;26166;48.264;11.436;2023-02-11T02:44:09;97975.16;;;7.52;39.88
10476;BME280;26166;48.264;11.436;2023-02-11T02:47:10;97974.25;;;7.53;40.13
10476;BME280;26166;48.264;11.436;2023-02-11T02:50:10;97973.09;;;7.57;40.58
10476;BME280;26166;48.264;11.436;2023-02-11T02:53:26;97969.09;;;7.64;40.12
10476;BME280;26166;48.264;11.436;2023-02-11T02:56:35;97960.75;;;7.59;40.20
10476;BME280;26166;48.264;11.436;2023-02-11T02:59:46;97956.22;;;7.61;40.36
10476;BME280;26166;48.264;11.436;2023-02-11T03:02:57;97947.78;;;7.57;40.08
10476;BME280;26166;48.264;11.436;2023-02-11T03:06:02;97947.56;;;7.61;40.51
10476;BME280;26166;48.264;11.436;2023-02-11T03:12:30;97938.16;;;7.58;39.98
10476;BME280;26166;48.264;11.436;2023-02-11T03:15:33;97929.16;;;7.62;40.08
10476;BME280;26166;48.264;11.436;2023-02-11T03:18:37;97941.50;;;7.60;40.03
10476;BME280;26166;48.264;11.436;2023-02-11T03:21:40;97949.34;;;7.60;40.15
10476;BME280;26166;48.264;11.436;2023-02-11T03:24:41;97955.50;;;7.59;40.01
10476;BME280;26166;48.264;11.436;2023-02-11T03:30:46;97948.81;;;7.55;40.05
10476;BME280;26166;48.264;11.436;2023-02-11T03:36:51;97944.63;;;7.52;40.41
10476;BME280;26166;48.264;11.436;2023-02-11T03:40:00;97954.47;;;7.49;40.11
10476;BME280;26166;48.264;11.436;2023-02-11T03:43:05;97946.31;;;7.53;40.24
10476;BME280;26166;48.264;11.436;2023-02-11T03:46:07;97952.28;;;7.55;40.03
10476;BME280;26166;48.264;11.436;2023-02-11T03:49:08;97945.81;;;7.48;39.72
10476;BME280;26166;48.264;11.436;2023-02-11T03:52:11;97950.09;;;7.49;40.01
10476;BME280;26166;48.264;11.436;2023-02-11T03:55:14;97948.63;;;7.45;39.86
10476;BME280;26166;48.264;11.436;2023-02-11T03:58:16;97954.47;;;7.49;39.83
10476;BME280;26166;48.264;11.436;2023-02-11T04:01:16;97963.25;;;7.48;39.89
10476;BME280;26166;48.264;11.436;2023-02-11T04:04:17;97963.06;;;7.51;39.79
10476;BME280;26166;48.264;11.436;2023-02-11T04:07:17;97969.22;;;7.50;39.95
10476;BME280;26166;48.264;11.436;2023-02-11T04:10:17;97964.19;;;7.47;39.94
10476;BME280;26166;48.264;11.436;2023-02-11T04:13:18;97971.22;;;7.46;39.68
10476;BME280;26166;48.264;11.436;2023-02-11T04:16:18;97975.81;;;7.43;39.56
10476;BME280;26166;48.264;11.436;2023-02-11T04:19:18;97976.63;;;7.43;40.00
10476;BME280;26166;48.264;11.436;2023-02-11T04:22:18;97972.47;;;7.41;39.73
10476;BME280;26166;48.264;11.436;2023-02-11T04:25:19;97986.38;;;7.41;40.10
10476;BME280;26166;48.264;11.436;2023-02-11T04:28:19;97990.34;;;7.47;39.49
10476;BME280;26166;48.264;11.436;2023-02-11T04:31:19;97993.91;;;7.46;39.77
10476;BME280;26166;48.264;11.436;2023-02-11T04:34:20;98007.69;;;7.48;39.48
10476;BME280;26166;48.264;11.436;2023-02-11T04:37:21;98001.75;;;7.46;40.26
10476;BME280;26166;48.264;11.436;2023-02-11T04:40:21;97997.34;;;7.46;39.63
10476;BME280;26166;48.264;11.436;2023-02-11T04:43:21;97994.75;;;7.46;39.54
10476;BME280;26166;48.264;11.436;2023-02-11T04:46:21;97998.19;;;7.47;39.85
10476;BME280;26166;48.264;11.436;2023-02-11T04:49:21;97996.53;;;7.46;39.60
10476;BME280;26166;48.264;11.436;2023-02-11T04:52:21;98008.44;;;7.50;39.38
10476;BME280;26166;48.264;11.436;2023-02-11T04:55:22;97999.66;;;7.51;39.90
10476;BME280;26166;48.264;11.436;2023-02-11T04:58:22;98002.47;;;7.48;39.75
10476;BME280;26166;48.264;11.436;2023-02-11T05:01:23;98001.63;;;7.47;39.91
10476;BME280;26166;48.264;11.436;2023-02-11T05:04:23;97999.78;;;7.49;40.01
10476;BME280;26166;48.264;11.436;2023-02-11T05:07:23;98001.31;;;7.52;39.66
10476;BME280;26166;48.264;11.436;2023-02-11T05:10:23;97992.75;;;7.50;39.72
10476;BME280;26166;48.264;11.436;2023-02-11T05:13:24;97993.59;;;7.50;39.95
10476;BME280;26166;48.264;11.436;2023-02-11T05:16:24;97985.88;;;7.49;39.84
10476;BME280;26166;48.264;11.436;2023-02-11T05:19:24;97989.19;;;7.51;39.69
10476;BME280;26166;48.264;11.436;2023-02-11T05:22:24;97981.22;;;7.52;39.95
10476;BME280;26166;48.264;11.436;2023-02-11T05:25:24;97971.19;;;7.59;40.30
10476;BME280;26166;48.264;11.436;2023-02-11T05:28:24;97964.94;;;7.62;39.84
10476;BME280;26166;48.264;11.436;2023-02-11T05:31:25;97955.00;;;7.67;39.69
10476;BME280;26166;48.264;11.436;2023-02-11T05:34:25;97959.16;;;7.69;40.03
10476;BME280;26166;48.264;11.436;2023-02-11T05:37:25;97970.13;;;7.74;39.93
10476;BME280;26166;48.264;11.436;2023-02-11T05:40:25;97964.31;;;7.58;39.73
10476;BME280;26166;48.264;11.436;2023-02-11T05:43:25;97963.25;;;7.61;39.99
10476;BME280;26166;48.264;11.436;2023-02-11T05:46:26;97956.66;;;7.68;39.54
10476;BME280;26166;48.264;11.436;2023-02-11T05:49:26;97949.44;;;7.71;40.10
10476;BME280;26166;48.264;11.436;2023-02-11T05:52:26;97949.31;;;7.73;39.90
10476;BME280;26166;48.264;11.436;2023-02-11T05:55:26;97957.28;;;7.71;40.06
10476;BME280;26166;48.264;11.436;2023-02-11T05:58:26;97952.06;;;7.58;40.21
10476;BME280;26166;48.264;11.436;2023-02-11T06:01:27;97948.94;;;7.66;39.82
10476;BME280;26166;48.264;11.436;2023-02-11T06:04:27;97948.19;;;7.64;40.02
10476;BME280;26166;48.264;11.436;2023-02-11T06:07:27;97959.72;;;7.62;40.68
10476;BME280;26166;48.264;11.436;2023-02-11T06:10:27;97963.88;;;7.64;40.15
10476;BME280;26166;48.264;11.436;2023-02-11T06:13:27;97960.75;;;7.59;40.85
10476;BME280;26166;48.264;11.436;2023-02-11T06:16:28;97972.88;;;7.60;40.35
10476;BME280;26166;48.264;11.436;2023-02-11T06:19:28;97980.59;;;7.74;39.82
10476;BME280;26166;48.264;11.436;2023-02-11T06:22:28;97973.69;;;7.61;40.36
10476;BME280;26166;48.264;11.436;2023-02-11T06:25:28;97958.00;;;7.73;40.11
10476;BME280;26166;48.264;11.436;2023-02-11T06:28:29;97963.88;;;7.64;40.36
10476;BME280;26166;48.264;11.436;2023-02-11T06:31:32;97969.84;;;7.66;40.59
10476;BME280;26166;48.264;11.436;2023-02-11T06:34:32;97960.53;;;7.62;41.09
10476;BME280;26166;48.264;11.436;2023-02-11T06:37:33;97963.88;;;7.64;41.00
10476;BME280;26166;48.264;11.436;2023-02-11T06:40:33;97951.53;;;7.66;40.98
10476;BME280;26166;48.264;11.436;2023-02-11T06:43:33;97956.03;;;7.64;41.05
10476;BME280;26166;48.264;11.436;2023-02-11T06:46:33;97949.44;;;7.71;40.66
10476;BME280;26166;48.264;11.436;2023-02-11T06:49:34;97952.56;;;7.76;40.69
10476;BME280;26166;48.264;11.436;2023-02-11T06:52:34;97958.22;;;7.70;41.05
10476;BME280;26166;48.264;11.436;2023-02-11T06:55:34;97965.53;;;7.65;40.62
10476;BME280;26166;48.264;11.436;2023-02-11T06:58:35;97971.00;;;7.62;40.92
10476;BME280;26166;48.264;11.436;2023-02-11T07:01:35;97979.69;;;7.63;40.94
10476;BME280;26166;48.264;11.436;2023-02-11T07:04:35;97990.66;;;7.68;40.80
10476;BME280;26166;48.264;11.436;2023-02-11T07:07:35;97991.19;;;7.60;40.93
10476;BME280;26166;48.264;11.436;2023-02-11T07:10:36;97981.22;;;7.65;41.23
10476;BME280;26166;48.264;11.436;2023-02-11T07:13:36;97984.38;;;7.70;40.97
10476;BME280;26166;48.264;11.436;2023-02-11T07:16:36;97966.91;;;7.71;40.93
10476;BME280;26166;48.264;11.436;2023-02-11T07:19:37;97949.63;;;7.68;40.83
10476;BME280;26166;48.264;11.436;2023-02-11T07:22:37;97942.94;;;7.77;40.96
10476;BME280;26166;48.264;11.436;2023-02-11T07:25:37;97945.00;;;7.84;40.55
10476;BME280;26166;48.264;11.436;2023-02-11T07:28:38;97947.53;;;7.73;41.21
10476;BME280;26166;48.264;11.436;2023-02-11T07:31:38;97947.78;;;7.70;41.32
10476;BME280;26166;48.264;11.436;2023-02-11T07:34:38;97941.59;;;7.71;41.21
10476;BME280;26166;48.264;11.436;2023-02-11T07:37:38;97935.09;;;7.64;41.05
10476;BME280;26166;48.264;11.436;2023-02-11T07:40:39;97940.13;;;7.67;41.38
10476;BME280;26166;48.264;11.436;2023-02-11T07:43:39;97954.88;;;7.68;41.20
10476;BME280;26166;48.264;11.436;2023-02-11T07:46:39;97960.75;;;7.59;41.20
10476;BME280;26166;48.264;11.436;2023-02-11T07:49:44;97960.59;;;7.73;40.80
10476;BME280;26166;48.264;11.436;2023-02-11T07:52:44;97939.81;;;7.72;41.37
10476;BME280;26166;48.264;11.436;2023-02-11T07:55:44;97947.31;;;7.76;40.88
10476;BME280;26166;48.264;11.436;2023-02-11T07:58:44;97950.66;;;7.78;40.99
10476;BME280;26166;48.264;11.436;2023-02-11T08:01:45;97944.91;;;7.73;40.86
10476;BME280;26166;48.264;11.436;2023-02-11T08:04:45;97947.53;;;7.73;41.13
10476;BME280;26166;48.264;11.436;2023-02-11T08:07:45;97954.22;;;7.77;40.98
10476;BME280;26166;48.264;11.436;2023-02-11T08:10:46;97961.34;;;7.75;41.04
10476;BME280;26166;48.264;11.436;2023-02-11T08:13:46;97958.81;;;7.74;41.39
10476;BME280;26166;48.264;11.436;2023-02-11T08:16:46;97965.97;;;7.72;41.28
10476;BME280;26166;48.264;11.436;2023-02-11T08:19:46;97954.53;;;7.73;41.59
10476;BME280;26166;48.264;11.436;2023-02-11T08:22:47;97955.50;;;7.72;41.73
10476;BME280;26166;48.264;11.436;2023-02-11T08:25:47;97951.81;;;7.74;41.14
10476;BME280;26166;48.264;11.436;2023-02-11T08:28:48;97949.81;;;7.78;41.28
10476;BME280;26166;48.264;11.436;2023-02-11T08:31:49;97941.44;;;7.86;40.91
10476;BME280;26166;48.264;11.436;2023-02-11T08:34:50;97943.72;;;7.90;41.04
10476;BME280;26166;48.264;11.436;2023-02-11T08:37:51;97949.28;;;7.86;41.27
10476;BME280;26166;48.264;11.436;2023-02-11T08:40:54;97947.06;;;7.92;40.88
10476;BME280;26166;48.264;11.436;2023-02-11T08:43:54;97950.31;;;7.96;40.83
10476;BME280;26166;48.264;11.436;2023-02-11T08:46:55;97952.09;;;7.95;40.88
10476;BME280;26166;48.264;11.436;2023-02-11T08:49:55;97931.91;;;7.97;40.95
10476;BME280;26166;48.264;11.436;2023-02-11T08:52:55;97932.22;;;7.93;41.20
10476;BME280;26166;48.264;11.436;2023-02-11T08:55:55;97928.41;;;7.97;41.15
10476;BME280;26166;48.264;11.436;2023-02-11T08:58:56;97925.59;;;8.00;41.00
10476;BME280;26166;48.264;11.436;2023-02-11T09:01:56;97939.19;;;8.05;40.41
10476;BME280;26166;48.264;11.436;2023-02-11T09:04:56;97943.19;;;7.98;40.70
10476;BME280;26166;48.264;11.436;2023-02-11T09:07:57;97940.47;;;7.99;40.65
10476;BME280;26166;48.264;11.436;2023-02-11T09:10:57;97938.47;;;8.03;40.63
10476;BME280;26166;48.264;11.436;2023-02-11T09:13:57;97933.84;;;8.06;40.81
10476;BME280;26166;48.264;11.436;2023-02-11T09:16:57;97957.94;;;7.99;40.90
10476;BME280;26166;48.264;11.436;2023-02-11T09:19:57;97943.69;;;8.03;41.08
10476;BME280;26166;48.264;11.436;2023-02-11T09:22:58;97942.88;;;8.02;40.74
10476;BME280;26166;48.264;11.436;2023-02-11T09:26:05;97946.31;;;8.03;40.93
10476;BME280;26166;48.264;11.436;2023-02-11T09:29:06;97948.94;;;8.03;40.69
10476;BME280;26166;48.264;11.436;2023-02-11T09:32:06;97943.25;;;8.09;40.68
10476;BME280;26166;48.264;11.436;2023-02-11T09:35:06;97955.38;;;8.10;40.65
10476;BME280;26166;48.264;11.436;2023-02-11T09:38:06;97943.16;;;8.11;40.53
10476;BME280;26166;48.264;11.436;2023-02-11T09:42:09;97938.97;;;8.08;40.74
10476;BME280;26166;48.264;11.436;2023-02-11T09:44:36;97928.00;;;8.03;41.13
10476;BME280;26166;48.264;11.436;2023-02-11T09:50:50;97925.38;;;8.03;40.76
10476;BME280;26166;48.264;11.436;2023-02-11T09:53:55;97919.19;;;8.04;40.87
10476;BME280;26166;48.264;11.436;2023-02-11T09:56:56;97919.94;;;8.06;40.86
10476;BME280;26166;48.264;11.436;2023-02-11T09:59:57;97915.41;;;8.08;40.76
10476;BME280;26166;48.264;11.436;2023-02-11T10:06:20;97911.47;;;8.02;40.89
10476;BME280;26166;48.264;11.436;2023-02-11T10:16:08;97930.91;;;8.11;40.77
10476;BME280;26166;48.264;11.436;2023-02-11T10:19:16;97916.38;;;8.07;41.09
10476;BME280;26166;48.264;11.436;2023-02-11T10:22:34;97910.84;;;7.99;41.40
10476;BME280;26166;48.264;11.436;2023-02-11T10:25:37;97910.63;;;8.02;41.68
10476;BME280;26166;48.264;11.436;2023-02-11T10:28:38;97927.25;;;8.01;41.65
10476;BME280;26166;48.264;11.436;2023-02-11T10:31:41;97926.84;;;8.07;41.49
10476;BME280;26166;48.264;11.436;2023-02-11T10:34:42;97911.22;;;8.05;41.18
10476;BME280;26166;48.264;11.436;2023-02-11T10:37:43;97918.34;;;8.03;41.67
10476;BME280;26166;48.264;11.436;2023-02-11T10:40:43;97916.47;;;8.05;41.57
10476;BME280;26166;48.264;11.436;2023-02-11T10:43:43;97922.56;;;8.06;41.46
10476;BME280;26166;48.264;11.436;2023-02-11T10:46:44;97922.03;;;8.01;42.07
10476;BME280;26166;48.264;11.436;2023-02-11T10:49:45;97914.38;;;8.11;41.91
10476;BME280;26166;48.264;11.436;2023-02-11T10:52:46;97903.16;;;8.08;41.74
10476;BME280;26166;48.264;11.436;2023-02-11T10:55:50;97895.72;;;8.15;41.74
10476;BME280;26166;48.264;11.436;2023-02-11T10:58:58;97894.13;;;8.13;41.95
10476;BME280;26166;48.264;11.436;2023-02-11T11:02:00;97890.81;;;8.11;41.85
10476;BME280;26166;48.264;11.436;2023-02-11T11:05:17;97883.47;;;8.16;41.97
10476;BME280;26166;48.264;11.436;2023-02-11T11:08:18;97885.94;;;8.17;42.03
10476;BME280;26166;48.264;11.436;2023-02-11T11:11:20;97887.63;;;8.18;41.49
10476;BME280;26166;48.264;11.436;2023-02-11T11:14:20;97887.63;;;8.18;41.46
10476;BME280;26166;48.264;11.436;2023-02-11T11:17:25;97891.31;;;8.16;41.50
10476;BME280;26166;48.264;11.436;2023-02-11T11:20:28;97871.19;;;8.16;41.97
10476;BME280;26166;48.264;11.436;2023-02-11T11:23:31;97874.88;;;8.14;42.21
10476;BME280;26166;48.264;11.436;2023-02-11T11:26:40;97872.88;;;8.17;41.97
10476;BME280;26166;48.264;11.436;2023-02-11T11:29:48;97877.16;;;8.18;42.29
10476;BME280;26166;48.264;11.436;2023-02-11T11:32:49;97878.09;;;8.17;42.17
10476;BME280;26166;48.264;11.436;2023-02-11T11:36:03;97868.69;;;8.15;42.13
10476;BME280;26166;48.264;11.436;2023-02-11T11:39:21;97875.34;;;8.19;42.22
10476;BME280;26166;48.264;11.436;2023-02-11T11:42:30;97870.75;;;8.22;42.12
10476;BME280;26166;48.264;11.436;2023-02-11T11:45:30;97875.97;;;8.22;42.36
10476;BME280;26166;48.264;11.436;2023-02-11T11:48:35;97879.34;;;8.24;42.19
10476;BME280;26166;48.264;11.436;2023-02-11T11:51:37;97884.56;;;8.24;41.97
10476;BME280;26166;48.264;11.436;2023-02-11T11:54:40;97874.81;;;8.26;42.22
10476;BME280;26166;48.264;11.436;2023-02-11T11:57:42;97866.13;;;8.26;42.20
10476;BME280;26166;48.264;11.436;2023-02-11T12:00:47;97860.88;;;8.26;41.97
10476;BME280;26166;48.264;11.436;2023-02-11T12:19:44;97846.75;;;8.28;41.79
10476;BME280;26166;48.264;11.436;2023-02-11T12:25:51;97835.31;;;8.29;42.06
10476;BME280;26166;48.264;11.436;2023-02-11T12:35:21;97840.69;;;8.28;42.01
10476;BME280;26166;48.264;11.436;2023-02-11T12:38:30;97829.25;;;8.29;42.19
10476;BME280;26166;48.264;11.436;2023-02-11T12:41:42;97820.66;;;8.27;42.15
10476;BME280;26166;48.264;11.436;2023-02-11T12:54:22;97820.84;;;8.37;41.97
10476;BME280;26166;48.264;11.436;2023-02-11T12:57:41;97816.53;;;8.35;41.80
10476;BME280;26166;48.264;11.436;2023-02-11T13:03:52;97802.28;;;8.40;41.81
10476;BME280;26166;48.264;11.436;2023-02-11T13:06:58;97796.34;;;8.38;42.05
10476;BME280;26166;48.264;11.436;2023-02-11T13:13:36;97798.72;;;8.41;42.12
10476;BME280;26166;48.264;11.436;2023-02-11T13:19:40;97790.63;;;8.44;41.84
10476;BME280;26166;48.264;11.436;2023-02-11T13:22:43;97784.44;;;8.45;41.66
10476;BME280;26166;48.264;11.436;2023-02-11T13:29:03;97778.28;;;8.46;41.71
10476;BME280;26166;48.264;11.436;2023-02-11T13:32:09;97782.44;;;8.48;41.67
10476;BME280;26166;48.264;11.436;2023-02-11T13:35:24;97778.03;;;8.49;41.79
10476;BME280;26166;48.264;11.436;2023-02-11T13:38:28;97778.84;;;8.49;41.89
10476;BME280;26166;48.264;11.436;2023-02-11T13:41:38;97777.06;;;8.50;42.00
10476;BME280;26166;48.264;11.436;2023-02-11T13:44:39;97780.63;;;8.49;41.99
10476;BME280;26166;48.264;11.436;2023-02-11T13:47:39;97775.31;;;8.50;42.14
10476;BME280;26166;48.264;11.436;2023-02-11T13:50:44;97780.41;;;8.52;42.01
10476;BME280;26166;48.264;11.436;2023-02-11T13:56:52;97792.69;;;8.51;42.24
10476;BME280;26166;48.264;11.436;2023-02-11T14:04:05;97789.56;;;8.46;42.30
10476;BME280;26166;48.264;11.436;2023-02-11T14:07:23;97783.25;;;8.49;42.38
10476;BME280;26166;48.264;11.436;2023-02-11T14:20:02;97783.16;;;8.50;42.59
10476;BME280;26166;48.264;11.436;2023-02-11T14:23:03;97785.88;;;8.49;42.79
10476;BME280;26166;48.264;11.436;2023-02-11T14:26:12;97780.53;;;8.50;42.62
10476;BME280;26166;48.264;11.436;2023-02-11T14:29:23;97784.00;;;8.51;42.66
10476;BME280;26166;48.264;11.436;2023-02-11T14:42:01;97778.03;;;8.49;42.80
10476;BME280;26166;48.264;11.436;2023-02-11T14:45:09;97786.84;;;8.48;42.37
10476;BME280;26166;48.264;11.436;2023-02-11T14:48:14;97789.56;;;8.46;42.91
10476;BME280;26166;48.264;11.436;2023-02-11T14:51:17;97789.31;;;8.49;43.12
10476;BME280;26166;48.264;11.436;2023-02-11T14:54:20;97791.00;;;8.50;42.70
10476;BME280;26166;48.264;11.436;2023-02-11T14:57:25;97798.97;;;8.49;43.27
10476;BME280;26166;48.264;11.436;2023-02-11T15:00:27;97791.84;;;8.51;42.98
10476;BME280;26166;48.264;11.436;2023-02-11T15:09:40;97804.22;;;8.49;43.00
10476;BME280;26166;48.264;11.436;2023-02-11T15:12:43;97798.97;;;8.49;42.97
10476;BME280;26166;48.264;11.436;2023-02-11T15:15:46;97804.09;;;8.50;43.24
10476;BME280;26166;48.264;11.436;2023-02-11T15:18:49;97797.91;;;8.51;43.18
10476;BME280;26166;48.264;11.436;2023-02-11T15:21:51;97788.41;;;8.50;43.19
10476;BME280;26166;48.264;11.436;2023-02-11T15:28:18;97787.44;;;8.51;43.33
10476;BME280;26166;48.264;11.436;2023-02-11T15:31:24;97795.38;;;8.50;43.37
10476;BME280;26166;48.264;11.436;2023-02-11T15:34:25;97797.91;;;8.51;43.46
10476;BME280;26166;48.264;11.436;2023-02-11T15:37:26;97797.09;;;8.51;43.70
10476;BME280;26166;48.264;11.436;2023-02-11T15:40:30;97801.50;;;8.50;43.55
10476;BME280;26166;48.264;11.436;2023-02-11T15:43:41;97805.16;;;8.48;43.87
10476;BME280;26166;48.264;11.436;2023-02-11T15:46:42;97815.75;;;8.46;44.04
10476;BME280;26166;48.264;11.436;2023-02-11T15:49:46;97813.03;;;8.48;43.83
10476;BME280;26166;48.264;11.436;2023-02-11T15:52:47;97815.63;;;8.48;43.85
10476;BME280;26166;48.264;11.436;2023-02-11T15:55:48;97809.44;;;8.49;43.81
10476;BME280;26166;48.264;11.436;2023-02-11T15:58:50;97821.34;;;8.53;43.71
10476;BME280;26166;48.264;11.436;2023-02-11T16:01:50;97816.34;;;8.50;43.69
10476;BME280;26166;48.264;11.436;2023-02-11T16:04:56;97811.09;;;8.50;43.78
10476;BME280;26166;48.264;11.436;2023-02-11T16:07:57;97809.44;;;8.49;43.79
10476;BME280;26166;48.264;11.436;2023-02-11T16:11:01;97812.19;;;8.47;43.60
10476;BME280;26166;48.264;11.436;2023-02-11T16:14:20;97817.31;;;8.49;43.84
10476;BME280;26166;48.264;11.436;2023-02-11T16:17:23;97822.78;;;8.46;44.28
10476;BME280;26166;48.264;11.436;2023-02-11T16:20:24;97823.13;;;8.41;44.22
10476;BME280;26166;48.264;11.436;2023-02-11T16:23:30;97837.97;;;8.41;44.41
10476;BME280;26166;48.264;11.436;2023-02-11T16:26:36;97854.66;;;8.40;44.66
10476;BME280;26166;48.264;11.436;2023-02-11T16:29:38;97841.88;;;8.35;45.00
10476;BME280;26166;48.264;11.436;2023-02-11T16:32:38;97852.47;;;8.33;44.93
10476;BME280;26166;48.264;11.436;2023-02-11T16:35:38;97849.94;;;8.32;44.70
10476;BME280;26166;48.264;11.436;2023-02-11T16:38:39;97863.03;;;8.32;44.90
10476;BME280;26166;48.264;11.436;2023-02-11T16:41:39;97860.19;;;8.35;44.49
10476;BME280;26166;48.264;11.436;2023-02-11T16:44:39;97872.03;;;8.41;44.65
10476;BME280;26166;48.264;11.436;2023-02-11T16:47:40;97873.59;;;8.43;44.53
10476;BME280;26166;48.264;11.436;2023-02-11T16:50:45;97885.03;;;8.42;44.27
10476;BME280;26166;48.264;11.436;2023-02-11T16:53:46;97888.00;;;8.38;44.83
10476;BME280;26166;48.264;11.436;2023-02-11T16:56:46;97884.94;;;8.31;45.19
10476;BME280;26166;48.264;11.436;2023-02-11T16:59:47;97890.59;;;8.38;44.44
10476;BME280;26166;48.264;11.436;2023-02-11T17:02:47;97893.22;;;8.38;44.54
10476;BME280;26166;48.264;11.436;2023-02-11T17:05:47;97894.06;;;8.49;45.02
10476;BME280;26166;48.264;11.436;2023-02-11T17:08:48;97899.94;;;8.53;45.11
10476;BME280;26166;48.264;11.436;2023-02-11T17:11:48;97906.84;;;8.54;45.03
10476;BME280;26166;48.264;11.436;2023-02-11T17:14:49;97917.84;;;8.59;44.84
10476;BME280;26166;48.264;11.436;2023-02-11T17:17:49;97913.28;;;8.61;44.62
10476;BME280;26166;48.264;11.436;2023-02-11T17:20:49;97916.63;;;8.63;44.66
10476;BME280;26166;48.264;11.436;2023-02-11T17:23:49;97912.00;;;8.67;44.67
10476;BME280;26166;48.264;11.436;2023-02-11T17:26:49;97921.56;;;8.68;44.63
10476;BME280;26166;48.264;11.436;2023-02-11T17:29:50;97926.78;;;8.68;44.91
10476;BME280;26166;48.264;11.436;2023-02-11T17:32:50;97934.53;;;8.69;44.67
10476;BME280;26166;48.264;11.436;2023-02-11T17:35:50;97933.56;;;8.70;44.61
10476;BME280;26166;48.264;11.436;2023-02-11T17:38:50;97926.44;;;8.72;44.72
10476;BME280;26166;48.264;11.436;2023-02-11T17:41:51;97931.16;;;8.67;44.77
10476;BME280;26166;48.264;11.436;2023-02-11T17:44:51;97928.47;;;8.69;44.94
10476;BME280;26166;48.264;11.436;2023-02-11T17:47:51;97934.41;;;8.71;44.88
10476;BME280;26166;48.264;11.436;2023-02-11T17:50:51;97939.63;;;8.71;44.89
10476;BME280;26166;48.264;11.436;2023-02-11T17:53:52;97937.63;;;8.74;44.77
10476;BME280;26166;48.264;11.436;2023-02-11T17:56:52;97946.31;;;8.75;44.67
10476;BME280;26166;48.264;11.436;2023-02-11T17:59:53;97948.25;;;8.73;44.89
10476;BME280;26166;48.264;11.436;2023-02-11T18:02:53;97950.25;;;8.69;45.04
10476;BME280;26166;48.264;11.436;2023-02-11T18:05:57;97947.84;;;8.66;44.77
10476;BME280;26166;48.264;11.436;2023-02-11T18:08:58;97955.00;;;8.64;45.25